createdAt,value
2022-11-19T00:00:07.191Z,4.79
2022-11-19T00:02:33.665Z,4.79
2022-11-19T00:05:00.414Z,4.74
2022-11-19T00:07:26.962Z,4.71
2022-11-19T00:09:53.385Z,4.72
2022-11-19T00:12:38.337Z,4.73
2022-11-19T00:15:05.362Z,4.71
2022-11-19T00:17:31.795Z,4.73
2022-11-19T00:19:58.217Z,4.66
2022-11-19T00:22:24.611Z,4.62
2022-11-19T00:24:51.105Z,4.56
2022-11-19T00:27:17.556Z,4.54
2022-11-19T00:29:43.991Z,4.51
2022-11-19T00:32:10.416Z,4.53
2022-11-19T00:34:36.838Z,4.54
2022-11-19T00:37:03.250Z,4.49
2022-11-19T00:39:29.678Z,4.50
2022-11-19T00:41:56.094Z,4.49
2022-11-19T00:44:22.548Z,4.44
2022-11-19T00:46:49.015Z,4.48
2022-11-19T00:49:15.454Z,4.48
2022-11-19T00:51:42.175Z,4.49
2022-11-19T00:54:08.647Z,4.46
2022-11-19T00:56:35.050Z,4.49
2022-11-19T00:59:01.599Z,4.49
2022-11-19T01:01:28.115Z,4.49
2022-11-19T01:03:54.958Z,4.48
2022-11-19T01:06:24.490Z,4.43
2022-11-19T01:08:52.314Z,4.41
2022-11-19T01:11:25.016Z,4.41
2022-11-19T01:13:51.808Z,4.35
2022-11-19T01:16:21.024Z,4.33
2022-11-19T01:18:49.027Z,4.34
2022-11-19T01:21:16.599Z,4.34
2022-11-19T01:23:43.622Z,4.33
2022-11-19T01:26:11.432Z,4.30
2022-11-19T01:28:38.212Z,4.24
2022-11-19T01:31:09.851Z,4.19
2022-11-19T01:33:36.906Z,4.18
2022-11-19T01:36:06.991Z,4.17
2022-11-19T01:38:34.256Z,4.15
2022-11-19T01:41:00.921Z,4.14
2022-11-19T01:43:50.372Z,4.14
2022-11-19T01:46:25.915Z,4.17
2022-11-19T01:48:58.590Z,4.16
2022-11-19T01:51:32.742Z,4.16
2022-11-19T01:54:11.057Z,4.13
2022-11-19T01:56:37.591Z,4.09
2022-11-19T01:59:09.363Z,4.09
2022-11-19T02:01:35.983Z,4.08
2022-11-19T02:04:04.790Z,4.07
2022-11-19T02:06:32.342Z,4.03
2022-11-19T02:08:58.789Z,4.00
2022-11-19T02:11:53.934Z,3.97
2022-11-19T02:14:54.883Z,3.94
2022-11-19T02:17:48.925Z,3.86
2022-11-19T02:20:54.850Z,3.84
2022-11-19T02:23:56.774Z,3.84
2022-11-19T02:26:44.991Z,3.84
2022-11-19T02:29:27.674Z,3.76
2022-11-19T02:32:26.165Z,3.73
2022-11-19T02:35:14.240Z,3.71
2022-11-19T02:37:40.598Z,3.71
2022-11-19T02:40:29.472Z,3.70
2022-11-19T02:43:18.432Z,3.71
2022-11-19T02:45:53.033Z,3.71
2022-11-19T02:48:32.478Z,3.68
2022-11-19T02:51:01.871Z,3.66
2022-11-19T02:53:29.011Z,3.66
2022-11-19T02:56:13.471Z,3.63
2022-11-19T02:59:12.666Z,3.57
2022-11-19T03:02:02.456Z,3.55
2022-11-19T03:04:30.571Z,3.54
2022-11-19T03:07:05.852Z,3.54
2022-11-19T03:09:37.804Z,3.53
2022-11-19T03:12:13.319Z,3.53
2022-11-19T03:15:21.374Z,3.51
2022-11-19T03:18:00.726Z,3.50
2022-11-19T03:20:32.651Z,3.45
2022-11-19T03:23:06.406Z,3.42
2022-11-19T03:25:40.744Z,3.34
2022-11-19T03:28:12.930Z,3.29
2022-11-19T03:30:43.092Z,3.26
2022-11-19T03:33:21.818Z,3.26
2022-11-19T03:35:53.461Z,3.25
2022-11-19T03:38:26.240Z,3.23
2022-11-19T03:40:54.898Z,3.20
2022-11-19T03:43:26.669Z,3.16
2022-11-19T03:45:56.002Z,3.14
2022-11-19T03:48:23.640Z,3.07
2022-11-19T03:50:57.411Z,3.02
2022-11-19T03:53:24.395Z,2.98
2022-11-19T03:55:58.425Z,2.98
2022-11-19T03:58:26.714Z,2.97
2022-11-19T04:00:53.790Z,2.95
2022-11-19T04:03:20.617Z,2.92
2022-11-19T04:05:47.425Z,2.95
2022-11-19T04:08:13.887Z,2.95
2022-11-19T04:10:40.347Z,2.93
2022-11-19T04:13:06.773Z,2.89
2022-11-19T04:15:33.211Z,2.91
2022-11-19T04:17:59.630Z,2.90
2022-11-19T04:20:26.089Z,2.84
2022-11-19T04:22:52.508Z,2.82
2022-11-19T04:25:18.956Z,2.79
2022-11-19T04:27:46.753Z,2.76
2022-11-19T04:30:14.536Z,2.75
2022-11-19T04:32:41.929Z,2.76
2022-11-19T04:35:08.713Z,2.73
2022-11-19T04:37:35.241Z,2.72
2022-11-19T04:40:02.076Z,2.73
2022-11-19T04:42:28.517Z,2.74
2022-11-19T04:44:54.906Z,2.72
2022-11-19T04:47:21.383Z,2.69
2022-11-19T04:49:47.830Z,2.67
2022-11-19T04:52:14.313Z,2.68
2022-11-19T04:54:40.746Z,2.68
2022-11-19T04:57:07.172Z,2.64
2022-11-19T04:59:33.604Z,2.60
2022-11-19T05:02:00.101Z,2.59
2022-11-19T05:04:26.577Z,2.60
2022-11-19T05:06:53.006Z,2.65
2022-11-19T05:09:19.578Z,2.60
2022-11-19T05:11:46.229Z,2.54
2022-11-19T05:14:12.690Z,2.53
2022-11-19T05:16:39.078Z,2.52
2022-11-19T05:19:05.648Z,2.51
2022-11-19T05:21:32.051Z,2.49
2022-11-19T05:23:58.474Z,2.48
2022-11-19T05:26:24.926Z,2.51
2022-11-19T05:28:51.309Z,2.52
2022-11-19T05:31:17.791Z,2.51
2022-11-19T05:33:44.245Z,2.49
2022-11-19T05:36:10.681Z,2.42
2022-11-19T05:38:37.500Z,2.39
2022-11-19T05:41:03.986Z,2.35
2022-11-19T05:43:30.631Z,2.36
2022-11-19T05:46:00.136Z,2.36
2022-11-19T05:48:26.539Z,2.34
2022-11-19T05:50:52.923Z,2.31
2022-11-19T05:53:19.362Z,2.26
2022-11-19T05:55:45.806Z,2.22
2022-11-19T05:58:13.750Z,2.18
2022-11-19T06:00:40.265Z,2.17
2022-11-19T06:03:06.838Z,2.16
2022-11-19T06:05:38.785Z,2.13
2022-11-19T06:08:06.879Z,2.14
2022-11-19T06:10:33.330Z,2.11
2022-11-19T06:12:59.740Z,2.04
2022-11-19T06:15:26.182Z,2.02
2022-11-19T06:17:52.598Z,2.01
2022-11-19T06:20:19.202Z,2.00
2022-11-19T06:22:45.664Z,1.96
2022-11-19T06:25:12.240Z,1.94
2022-11-19T06:27:38.820Z,1.88
2022-11-19T06:30:07.135Z,1.86
2022-11-19T06:32:33.565Z,1.86
2022-11-19T06:34:59.967Z,1.84
2022-11-19T06:37:26.464Z,1.81
2022-11-19T06:39:54.130Z,1.81
2022-11-19T06:42:38.715Z,1.77
2022-11-19T06:45:10.449Z,1.75
2022-11-19T06:47:38.049Z,1.73
2022-11-19T06:50:06.388Z,1.74
2022-11-19T06:52:32.852Z,1.73
2022-11-19T06:54:59.313Z,1.72
2022-11-19T06:57:25.845Z,1.70
2022-11-19T06:59:52.273Z,1.67
2022-11-19T07:02:21.454Z,1.66
2022-11-19T07:04:48.433Z,1.66
2022-11-19T07:07:14.902Z,1.63
2022-11-19T07:09:41.455Z,1.58
2022-11-19T07:12:08.218Z,1.54
2022-11-19T07:14:35.715Z,1.54
2022-11-19T07:17:02.174Z,1.52
2022-11-19T07:19:28.595Z,1.50
2022-11-19T07:21:55.293Z,1.50
2022-11-19T07:24:22.008Z,1.51
2022-11-19T07:26:48.467Z,1.51
2022-11-19T07:29:15.883Z,1.50
2022-11-19T07:31:42.540Z,1.54
2022-11-19T07:34:10.650Z,1.47
2022-11-19T07:36:37.525Z,1.45
2022-11-19T07:39:05.480Z,1.42
2022-11-19T07:41:50.362Z,1.40
2022-11-19T07:44:17.003Z,1.35
2022-11-19T07:46:43.455Z,1.37
2022-11-19T07:49:09.968Z,1.38
2022-11-19T07:51:36.440Z,1.37
2022-11-19T07:54:02.937Z,1.33
2022-11-19T07:56:29.411Z,1.34
2022-11-19T07:58:55.865Z,1.31
2022-11-19T08:01:24.413Z,1.28
2022-11-19T08:03:56.069Z,1.26
2022-11-19T08:06:25.596Z,1.25
2022-11-19T08:08:52.499Z,1.21
2022-11-19T08:11:18.968Z,1.20
2022-11-19T08:13:45.600Z,1.23
2022-11-19T08:16:34.446Z,1.25
2022-11-19T08:19:09.584Z,1.22
2022-11-19T08:21:39.516Z,1.17
2022-11-19T08:24:06.589Z,1.12
2022-11-19T08:26:33.067Z,1.09
2022-11-19T08:28:59.511Z,1.07
2022-11-19T08:31:26.670Z,1.01
2022-11-19T08:33:53.601Z,0.96
2022-11-19T08:36:20.083Z,0.97
2022-11-19T08:38:46.492Z,1.00
2022-11-19T08:41:31.587Z,1.01
2022-11-19T08:44:04.346Z,0.97
2022-11-19T08:46:30.782Z,0.94
2022-11-19T08:48:57.233Z,0.93
2022-11-19T08:51:23.725Z,0.97
2022-11-19T08:53:54.957Z,1.04
2022-11-19T08:56:22.068Z,1.06
2022-11-19T08:58:49.305Z,1.07
2022-11-19T09:01:17.648Z,1.11
2022-11-19T09:03:44.671Z,1.07
2022-11-19T09:06:11.982Z,1.04
2022-11-19T09:08:39.395Z,1.02
2022-11-19T09:11:12.184Z,1.07
2022-11-19T09:13:39.205Z,1.10
2022-11-19T09:16:06.432Z,1.21
2022-11-19T09:18:33.262Z,1.28
2022-11-19T09:20:59.809Z,1.25
2022-11-19T09:23:27.540Z,1.24
2022-11-19T09:26:02.726Z,1.24
2022-11-19T09:28:30.218Z,1.22
2022-11-19T09:31:03.389Z,1.14
2022-11-19T09:33:31.682Z,1.16
2022-11-19T09:35:58.218Z,1.13
2022-11-19T09:38:24.983Z,1.16
2022-11-19T09:40:54.519Z,1.14
2022-11-19T09:43:46.788Z,1.11
2022-11-19T09:46:23.073Z,1.20
2022-11-19T09:48:52.732Z,1.23
2022-11-19T09:51:29.031Z,1.24
2022-11-19T09:54:08.265Z,1.24
2022-11-19T09:56:59.236Z,1.30
2022-11-19T09:59:39.902Z,1.37
2022-11-19T10:02:18.867Z,1.39
2022-11-19T10:04:47.312Z,1.45
2022-11-19T10:07:32.314Z,1.49
2022-11-19T10:10:20.590Z,1.54
2022-11-19T10:13:12.239Z,1.56
2022-11-19T10:15:53.981Z,1.52
2022-11-19T10:18:34.497Z,1.48
2022-11-19T10:21:03.857Z,1.51
2022-11-19T10:23:54.722Z,1.62
2022-11-19T10:26:33.062Z,1.68
2022-11-19T10:28:59.928Z,1.70
2022-11-19T10:31:35.127Z,1.71
2022-11-19T10:34:04.702Z,1.71
2022-11-19T10:36:38.799Z,1.68
2022-11-19T10:39:22.536Z,1.72
2022-11-19T10:42:06.834Z,1.76
2022-11-19T10:44:43.137Z,1.83
2022-11-19T10:47:39.905Z,1.86
2022-11-19T10:50:11.120Z,1.89
2022-11-19T10:52:46.254Z,1.89
2022-11-19T10:55:23.454Z,1.92
2022-11-19T10:57:55.972Z,1.94
2022-11-19T11:00:22.536Z,1.98
2022-11-19T11:03:04.265Z,2.04
2022-11-19T11:05:31.697Z,2.04
2022-11-19T11:08:01.040Z,2.07
2022-11-19T11:10:51.370Z,2.08
2022-11-19T11:13:49.458Z,2.13
2022-11-19T11:16:20.185Z,2.15
2022-11-19T11:18:47.307Z,2.20
2022-11-19T11:21:29.936Z,2.19
2022-11-19T11:23:56.758Z,2.24
2022-11-19T11:26:26.491Z,2.29
2022-11-19T11:29:11.798Z,2.27
2022-11-19T11:31:45.251Z,2.23
2022-11-19T11:34:30.709Z,2.26
2022-11-19T11:37:00.022Z,2.27
2022-11-19T11:39:32.500Z,2.30
2022-11-19T11:42:07.640Z,2.31
2022-11-19T11:44:38.440Z,2.32
2022-11-19T11:47:14.993Z,2.35
2022-11-19T11:49:44.731Z,2.37
2022-11-19T11:52:11.216Z,2.40
2022-11-19T11:54:53.498Z,2.46
2022-11-19T11:57:23.375Z,2.52
2022-11-19T11:59:49.808Z,2.58
2022-11-19T12:02:30.580Z,2.56
2022-11-19T12:05:01.178Z,2.57
2022-11-19T12:07:39.709Z,2.58
2022-11-19T12:10:26.552Z,2.58
2022-11-19T12:13:06.989Z,2.59
2022-11-19T12:16:08.823Z,2.61
2022-11-19T12:18:56.740Z,2.62
2022-11-19T12:21:48.866Z,2.68
2022-11-19T12:24:27.474Z,2.72
2022-11-19T12:27:22.062Z,2.76
2022-11-19T12:30:20.681Z,2.77
2022-11-19T12:33:24.212Z,2.78
2022-11-19T12:36:29.296Z,2.82
2022-11-19T12:39:07.155Z,2.88
2022-11-19T12:41:49.513Z,2.91
2022-11-19T12:44:18.958Z,2.89
2022-11-19T12:47:04.264Z,2.91
2022-11-19T12:49:49.679Z,2.91
2022-11-19T12:52:50.405Z,2.90
2022-11-19T12:55:54.162Z,2.92
2022-11-19T12:58:32.282Z,2.94
2022-11-19T13:01:04.072Z,2.96
2022-11-19T13:03:46.331Z,2.94
2022-11-19T13:06:22.383Z,2.94
2022-11-19T13:08:48.861Z,2.95
2022-11-19T13:11:22.088Z,2.93
2022-11-19T13:13:55.055Z,2.90
2022-11-19T13:16:24.474Z,2.88
2022-11-19T13:18:56.579Z,2.89
2022-11-19T13:21:43.413Z,2.85
2022-11-19T13:24:40.997Z,2.86
2022-11-19T13:27:16.537Z,2.83
2022-11-19T13:30:01.988Z,2.82
2022-11-19T13:32:49.876Z,2.80
2022-11-19T13:35:29.045Z,2.81
2022-11-19T13:38:28.594Z,2.77
2022-11-19T13:41:12.689Z,2.78
2022-11-19T13:43:58.665Z,2.79
2022-11-19T13:46:49.293Z,2.77
2022-11-19T13:49:19.447Z,2.75
2022-11-19T13:51:49.906Z,2.76
2022-11-19T13:54:29.731Z,2.76
2022-11-19T13:56:58.152Z,2.74
2022-11-19T13:59:40.825Z,2.74
2022-11-19T14:02:19.963Z,2.71
2022-11-19T14:05:24.282Z,2.68
2022-11-19T14:07:53.668Z,2.67
2022-11-19T14:10:34.568Z,2.64
2022-11-19T14:13:15.060Z,2.62
2022-11-19T14:16:00.301Z,2.57
2022-11-19T14:18:54.847Z,2.56
2022-11-19T14:22:10.312Z,2.53
2022-11-19T14:24:56.334Z,2.53
2022-11-19T14:27:49.020Z,2.50
2022-11-19T14:30:24.748Z,2.47
2022-11-19T14:32:59.977Z,2.44
2022-11-19T14:35:32.327Z,2.42
2022-11-19T14:38:25.658Z,2.41
2022-11-19T14:42:02.364Z,2.39
2022-11-19T14:45:11.807Z,2.33
2022-11-19T14:47:47.366Z,2.30
2022-11-19T14:53:26.408Z,2.26
2022-11-19T14:55:54.190Z,2.22
2022-11-19T15:02:08.150Z,2.15
2022-11-19T15:04:43.207Z,2.10
2022-11-19T15:07:29.446Z,2.05
2022-11-19T15:10:15.390Z,2.00
2022-11-19T15:13:10.882Z,1.96
2022-11-19T15:15:49.229Z,1.92
2022-11-19T15:19:07.250Z,1.85
2022-11-19T15:21:46.967Z,1.78
2022-11-19T15:24:48.279Z,1.75
2022-11-19T15:30:57.618Z,1.65
2022-11-19T15:49:13.355Z,1.32
2022-11-19T15:52:17.862Z,1.28
2022-11-19T16:13:53.402Z,0.90
2022-11-19T16:16:44.380Z,0.87
2022-11-19T16:19:15.295Z,0.84
2022-11-19T16:21:44.816Z,0.80
2022-11-19T16:24:34.839Z,0.75
2022-11-19T16:27:03.737Z,0.70
2022-11-19T16:29:34.076Z,0.67
2022-11-19T16:32:00.624Z,0.63
2022-11-19T16:34:31.259Z,0.59
2022-11-19T16:36:57.878Z,0.58
2022-11-19T16:39:26.494Z,0.55
2022-11-19T16:42:15.926Z,0.50
2022-11-19T16:45:05.329Z,0.44
2022-11-19T16:47:36.536Z,0.41
2022-11-19T16:50:24.647Z,0.38
2022-11-19T16:52:51.454Z,0.35
2022-11-19T16:55:17.804Z,0.30
2022-11-19T16:57:52.019Z,0.23
2022-11-19T17:00:30.735Z,0.16
2022-11-19T17:02:57.978Z,0.12
2022-11-19T17:05:31.240Z,0.04
2022-11-19T17:08:08.214Z,-0.01
2022-11-19T17:10:35.443Z,-0.07
2022-11-19T17:13:04.256Z,-0.11
2022-11-19T17:15:43.603Z,-0.15
2022-11-19T17:18:10.081Z,-0.16
2022-11-19T17:20:36.470Z,-0.19
2022-11-19T17:23:11.183Z,-0.19
2022-11-19T17:25:46.443Z,-0.21
2022-11-19T17:28:19.654Z,-0.24
2022-11-19T17:30:49.436Z,-0.27
2022-11-19T17:33:18.951Z,-0.29
2022-11-19T17:35:47.621Z,-0.30
2022-11-19T17:38:27.949Z,-0.32
2022-11-19T17:40:57.181Z,-0.33
2022-11-19T17:43:46.170Z,-0.34
2022-11-19T17:46:12.673Z,-0.37
2022-11-19T17:48:44.053Z,-0.39
2022-11-19T17:51:25.371Z,-0.41
2022-11-19T17:53:52.885Z,-0.43
2022-11-19T17:56:28.806Z,-0.45
2022-11-19T17:58:55.500Z,-0.48
2022-11-19T18:01:22.684Z,-0.50
2022-11-19T18:03:49.294Z,-0.53
2022-11-19T18:06:17.212Z,-0.54
2022-11-19T18:08:45.321Z,-0.59
2022-11-19T18:11:23.757Z,-0.61
2022-11-19T18:13:57.235Z,-0.64
2022-11-19T18:16:31.145Z,-0.65
2022-11-19T18:18:57.544Z,-0.67
2022-11-19T18:21:23.998Z,-0.71
2022-11-19T18:23:51.619Z,-0.73
2022-11-19T18:26:22.261Z,-0.75
2022-11-19T18:28:49.339Z,-0.80
2022-11-19T18:31:27.799Z,-0.83
2022-11-19T18:33:55.898Z,-0.85
2022-11-19T18:36:23.786Z,-0.88
2022-11-19T18:38:50.287Z,-0.91
2022-11-19T18:41:20.210Z,-0.95
2022-11-19T18:44:22.536Z,-0.96
2022-11-19T18:46:48.947Z,-0.96
2022-11-19T18:49:15.357Z,-0.97
2022-11-19T18:51:43.819Z,-1.01
2022-11-19T18:54:12.025Z,-1.04
2022-11-19T18:56:38.802Z,-1.05
2022-11-19T18:59:05.304Z,-1.06
2022-11-19T19:01:32.234Z,-1.08
2022-11-19T19:03:58.713Z,-1.10
2022-11-19T19:06:25.524Z,-1.11
2022-11-19T19:08:52.008Z,-1.12
2022-11-19T19:11:36.969Z,-1.15
2022-11-19T19:14:04.213Z,-1.17
2022-11-19T19:16:30.870Z,-1.16
2022-11-19T19:18:57.472Z,-1.19
2022-11-19T19:21:24.959Z,-1.19
2022-11-19T19:23:51.381Z,-1.22
2022-11-19T19:26:18.896Z,-1.25
2022-11-19T19:28:53.777Z,-1.26
2022-11-19T19:31:21.880Z,-1.29
2022-11-19T19:33:49.019Z,-1.30
2022-11-19T19:36:16.989Z,-1.30
2022-11-19T19:38:43.821Z,-1.32
2022-11-19T19:41:13.963Z,-1.35
2022-11-19T19:43:40.704Z,-1.39
2022-11-19T19:46:15.187Z,-1.43
2022-11-19T19:48:46.973Z,-1.45
2022-11-19T19:51:16.052Z,-1.46
2022-11-19T19:53:43.318Z,-1.50
2022-11-19T19:56:18.004Z,-1.56
2022-11-19T19:58:45.423Z,-1.60
2022-11-19T20:01:15.225Z,-1.63
2022-11-19T20:03:43.071Z,-1.67
2022-11-19T20:06:11.752Z,-1.69
2022-11-19T20:08:38.835Z,-1.69
2022-11-19T20:11:08.959Z,-1.70
2022-11-19T20:13:36.816Z,-1.72
2022-11-19T20:16:07.241Z,-1.74
2022-11-19T20:18:36.834Z,-1.77
2022-11-19T20:21:05.372Z,-1.77
2022-11-19T20:23:32.266Z,-1.78
2022-11-19T20:26:25.811Z,-1.81
2022-11-19T20:28:57.489Z,-1.84
2022-11-19T20:31:24.688Z,-1.84
2022-11-19T20:33:55.207Z,-1.88
2022-11-19T20:36:25.503Z,-1.90
2022-11-19T20:38:52.190Z,-1.92
2022-11-19T20:41:39.147Z,-1.93
2022-11-19T20:44:22.764Z,-1.97
2022-11-19T20:47:00.953Z,-1.98
2022-11-19T20:49:32.812Z,-1.99
2022-11-19T20:51:59.544Z,-2.00
2022-11-19T20:54:26.910Z,-2.02
2022-11-19T20:56:54.789Z,-2.04
2022-11-19T20:59:22.514Z,-2.07
2022-11-19T21:01:50.216Z,-2.11
2022-11-19T21:04:17.221Z,-2.13
2022-11-19T21:06:43.673Z,-2.14
2022-11-19T21:09:10.129Z,-2.17
2022-11-19T21:11:36.651Z,-2.21
2022-11-19T21:14:03.691Z,-2.23
2022-11-19T21:16:30.637Z,-2.24
2022-11-19T21:18:57.110Z,-2.28
2022-11-19T21:21:24.356Z,-2.30
2022-11-19T21:23:52.152Z,-2.33
2022-11-19T21:26:21.533Z,-2.34
2022-11-19T21:28:52.013Z,-2.36
2022-11-19T21:31:20.657Z,-2.36
2022-11-19T21:33:47.144Z,-2.38
2022-11-19T21:36:15.205Z,-2.39
2022-11-19T21:38:41.700Z,-2.41
2022-11-19T21:41:08.170Z,-2.41
2022-11-19T21:43:35.266Z,-2.40
2022-11-19T21:46:01.865Z,-2.42
2022-11-19T21:48:28.309Z,-2.46
2022-11-19T21:50:54.832Z,-2.46
2022-11-19T21:53:21.616Z,-2.46
2022-11-19T21:55:48.651Z,-2.48
2022-11-19T21:58:16.108Z,-2.53
2022-11-19T22:00:44.009Z,-2.54
2022-11-19T22:03:10.524Z,-2.58
2022-11-19T22:05:36.928Z,-2.64
2022-11-19T22:08:03.714Z,-2.67
2022-11-19T22:10:30.475Z,-2.70
2022-11-19T22:12:58.668Z,-2.70
2022-11-19T22:15:26.271Z,-2.71
2022-11-19T22:17:52.783Z,-2.72
2022-11-19T22:20:19.403Z,-2.72
2022-11-19T22:22:46.635Z,-2.74
2022-11-19T22:25:13.896Z,-2.74
2022-11-19T22:27:41.599Z,-2.76
2022-11-19T22:30:10.123Z,-2.78
2022-11-19T22:32:36.902Z,-2.78
2022-11-19T22:35:04.065Z,-2.80
2022-11-19T22:37:30.517Z,-2.82
2022-11-19T22:39:56.967Z,-2.86
2022-11-19T22:42:23.429Z,-2.87
2022-11-19T22:44:49.809Z,-2.91
2022-11-19T22:47:16.220Z,-2.91
2022-11-19T22:49:44.112Z,-2.92
2022-11-19T22:52:10.541Z,-2.92
2022-11-19T22:54:41.427Z,-2.94
2022-11-19T22:57:08.536Z,-2.95
2022-11-19T22:59:35.319Z,-2.98
2022-11-19T23:02:01.739Z,-2.99
2022-11-19T23:04:29.111Z,-3.02
2022-11-19T23:06:55.591Z,-3.04
2022-11-19T23:09:22.325Z,-3.06
2022-11-19T23:12:07.754Z,-3.08
2022-11-19T23:14:34.235Z,-3.12
2022-11-19T23:17:00.716Z,-3.14
2022-11-19T23:19:27.187Z,-3.15
2022-11-19T23:21:53.570Z,-3.19
2022-11-19T23:24:20.273Z,-3.21
2022-11-19T23:26:46.740Z,-3.21
2022-11-19T23:29:13.367Z,-3.24
2022-11-19T23:31:40.436Z,-3.26
2022-11-19T23:34:07.366Z,-3.27
2022-11-19T23:36:36.862Z,-3.27
2022-11-19T23:39:05.403Z,-3.29
2022-11-19T23:41:33.701Z,-3.27
2022-11-19T23:44:00.695Z,-3.27
2022-11-19T23:46:33.101Z,-3.27
2022-11-19T23:49:00.799Z,-3.30
2022-11-19T23:51:36.378Z,-3.32
2022-11-19T23:54:03.529Z,-3.35
2022-11-19T23:56:32.159Z,-3.37
2022-11-19T23:59:00.675Z,-3.38
